Time;durP1;ratioP1;P1;durP2;ratioP2;P2;SDS_P1;SDS_P2;PMS_P1;PMS_P2;Temp;Humidity;BMP_temperature;BMP_pressure;BME280_temperature;BME280_humidity;BME280_pressure;Samples;Min_cycle;Max_cycle;Signal;HPM_P1;HPM_P2
2022/04/21 00:01:31;;;;;;;13.85;8.65;;;13.70;99.90;;;;;;5013293;28;20045;-65
2022/04/21 00:04:35;;;;;;;11.55;8.38;;;13.70;99.90;;;;;;5013065;28;20053;-64
2022/04/21 00:07:39;;;;;;;14.32;9.40;;;13.70;99.90;;;;;;5012636;28;20060;-64
2022/04/21 00:10:44;;;;;;;18.80;9.65;;;13.60;99.90;;;;;;5012993;28;20045;-65
2022/04/21 00:13:47;;;;;;;17.90;9.27;;;13.50;99.90;;;;;;5012603;28;20053;-65
2022/04/21 00:16:52;;;;;;;16.90;9.20;;;13.40;99.90;;;;;;5012130;28;20057;-65
2022/04/21 00:19:56;;;;;;;18.88;9.52;;;13.30;99.90;;;;;;5012685;28;20050;-64
2022/04/21 00:26:22;;;;;;;14.13;8.65;;;12.90;99.90;;;;;;5011854;28;20049;-65
2022/04/21 00:29:26;;;;;;;14.38;9.57;;;12.80;99.90;;;;;;5012357;28;20041;-65
2022/04/21 00:32:30;;;;;;;17.63;9.25;;;12.70;99.90;;;;;;5012402;28;20037;-65
2022/04/21 00:35:35;;;;;;;16.77;10.20;;;12.70;99.90;;;;;;5012213;28;20049;-65
2022/04/21 00:38:38;;;;;;;17.30;9.90;;;12.70;99.90;;;;;;5012469;28;20049;-65
2022/04/21 00:41:42;;;;;;;20.00;11.27;;;12.70;99.90;;;;;;5012528;28;20049;-64
2022/04/21 00:44:49;;;;;;;16.58;10.65;;;12.70;99.90;;;;;;5012405;28;20052;-64
2022/04/21 00:47:56;;;;;;;15.38;10.30;;;12.70;99.90;;;;;;5011880;28;20535;-64
2022/04/21 00:51:00;;;;;;;21.42;11.40;;;12.60;99.90;;;;;;5012354;28;20049;-64
2022/04/21 00:54:04;;;;;;;17.25;11.85;;;12.50;99.90;;;;;;5011960;28;20037;-65
2022/04/21 00:57:09;;;;;;;25.02;10.60;;;12.50;99.90;;;;;;5011855;28;20072;-64
2022/04/21 01:00:14;;;;;;;19.55;11.32;;;12.50;99.90;;;;;;5012353;28;20048;-65
2022/04/21 01:03:18;;;;;;;19.10;11.15;;;12.50;99.90;;;;;;5011885;28;20049;-64
2022/04/21 01:06:23;;;;;;;20.77;12.35;;;12.50;99.90;;;;;;5011238;28;20065;-65
2022/04/21 01:09:27;;;;;;;17.30;10.00;;;12.50;99.90;;;;;;5012304;28;20276;-65
2022/04/21 01:12:31;;;;;;;19.08;11.27;;;12.40;99.90;;;;;;5012025;28;20041;-65
2022/04/21 01:15:37;;;;;;;20.48;10.70;;;12.40;99.90;;;;;;5012097;28;20056;-65
2022/04/21 01:18:42;;;;;;;18.05;10.18;;;12.50;99.90;;;;;;5011678;28;20045;-65
2022/04/21 01:21:46;;;;;;;21.33;10.77;;;12.30;99.90;;;;;;5011475;28;20053;-65
2022/04/21 01:24:50;;;;;;;13.95;10.57;;;12.40;99.90;;;;;;5011808;28;20053;-65
2022/04/21 01:28:00;;;;;;;17.58;11.65;;;12.40;99.90;;;;;;5010943;28;20052;-65
2022/04/21 01:31:04;;;;;;;18.48;11.32;;;12.50;99.90;;;;;;5011386;28;20052;-65
2022/04/21 01:34:07;;;;;;;18.15;12.23;;;12.50;99.90;;;;;;5011329;28;20603;-65
2022/04/21 01:43:56;;;;;;;22.30;13.23;;;12.50;99.90;;;;;;5010938;28;20053;-65
2022/04/21 01:47:00;;;;;;;21.70;12.90;;;12.50;99.90;;;;;;5009767;28;20500;-65
2022/04/21 01:50:07;;;;;;;15.27;11.40;;;12.50;99.90;;;;;;5010611;28;20037;-65
2022/04/21 01:53:11;;;;;;;23.00;13.25;;;12.50;99.90;;;;;;5011509;28;20057;-66
2022/04/21 01:56:15;;;;;;;23.65;14.27;;;12.40;99.90;;;;;;5010889;28;20140;-65
2022/04/21 01:59:19;;;;;;;20.42;13.63;;;12.30;99.90;;;;;;5011440;28;20053;-66
2022/04/21 02:02:23;;;;;;;18.58;12.70;;;12.20;99.90;;;;;;5011006;28;20052;-66
2022/04/21 02:05:27;;;;;;;22.38;14.15;;;12.20;99.90;;;;;;5011363;28;20528;-66
2022/04/21 02:08:31;;;;;;;21.17;14.52;;;12.20;99.90;;;;;;5011522;28;20049;-66
2022/04/21 02:11:35;;;;;;;19.55;13.60;;;12.20;99.90;;;;;;5011126;28;20040;-66
2022/04/21 02:14:39;;;;;;;19.50;14.95;;;12.20;99.90;;;;;;5010478;28;20057;-66
2022/04/21 02:17:44;;;;;;;25.13;13.20;;;12.30;99.90;;;;;;5010547;28;20099;-66
2022/04/21 02:20:49;;;;;;;17.23;13.05;;;12.20;99.90;;;;;;5011155;28;20052;-66
2022/04/21 02:23:53;;;;;;;21.58;14.10;;;12.10;99.90;;;;;;5010937;28;20400;-66
2022/04/21 02:26:56;;;;;;;21.33;13.95;;;12.10;99.90;;;;;;5010144;28;20060;-66
2022/04/21 02:30:00;;;;;;;23.83;15.07;;;12.00;99.90;;;;;;5011557;28;20037;-65
2022/04/21 02:33:04;;;;;;;20.50;14.50;;;12.00;99.90;;;;;;5014231;28;20060;-66
2022/04/21 02:36:08;;;;;;;18.75;14.27;;;12.10;99.90;;;;;;5011210;28;20053;-66
2022/04/21 02:39:14;;;;;;;18.88;14.57;;;12.10;99.90;;;;;;5011369;28;20045;-65
2022/04/21 02:42:22;;;;;;;22.95;15.02;;;12.10;99.90;;;;;;5011423;28;20053;-67
2022/04/21 02:45:26;;;;;;;18.60;13.68;;;12.00;99.90;;;;;;5011594;28;20389;-66
2022/04/21 02:48:30;;;;;;;17.30;13.90;;;12.10;99.90;;;;;;5011800;28;20499;-66
2022/04/21 02:51:34;;;;;;;20.20;13.95;;;12.00;99.90;;;;;;5011391;28;20037;-66
2022/04/21 02:58:03;;;;;;;20.00;14.25;;;12.00;99.90;;;;;;5010951;28;20041;-66
2022/04/21 03:01:07;;;;;;;19.05;14.30;;;12.00;99.90;;;;;;5015822;28;20500;-66
2022/04/21 03:04:14;;;;;;;18.60;13.95;;;11.90;99.90;;;;;;5013942;28;20086;-67
2022/04/21 03:07:22;;;;;;;18.30;13.57;;;11.90;99.90;;;;;;5015342;28;20052;-66
2022/04/21 03:10:26;;;;;;;21.58;13.85;;;11.80;99.90;;;;;;5025650;28;20076;-66
2022/04/21 03:13:30;;;;;;;16.17;12.77;;;11.80;99.90;;;;;;5015318;28;20037;-66
2022/04/21 03:16:35;;;;;;;21.10;11.25;;;11.80;99.90;;;;;;5025463;28;20053;-66
2022/04/21 03:19:39;;;;;;;15.98;11.82;;;11.80;99.90;;;;;;5015129;28;20048;-66
2022/04/21 03:26:06;;;;;;;51.95;14.25;;;11.90;99.90;;;;;;5025543;28;20065;-66
2022/04/21 03:29:10;;;;;;;18.88;11.88;;;11.90;99.90;;;;;;5014918;28;20068;-66
2022/04/21 03:32:14;;;;;;;15.95;11.10;;;11.90;99.90;;;;;;5014425;28;20045;-66
2022/04/21 03:35:18;;;;;;;15.52;10.43;;;11.90;99.90;;;;;;5014899;28;20052;-66
2022/04/21 03:38:22;;;;;;;15.10;11.88;;;11.90;99.90;;;;;;5013826;28;20052;-66
2022/04/21 03:41:26;;;;;;;14.82;12.02;;;11.90;99.90;;;;;;5014202;28;20504;-66
2022/04/21 03:44:32;;;;;;;31.00;12.50;;;11.90;99.90;;;;;;5014569;28;20045;-66
2022/04/21 03:47:38;;;;;;;26.17;13.85;;;11.80;99.90;;;;;;5015092;28;20049;-66
2022/04/21 03:50:43;;;;;;;55.05;14.82;;;11.70;99.90;;;;;;5014874;28;20053;-66
2022/04/21 03:53:47;;;;;;;63.45;16.05;;;11.70;99.90;;;;;;5013255;28;20041;-65
2022/04/21 03:56:52;;;;;;;81.20;18.67;;;11.60;99.90;;;;;;5024753;28;20060;-66
2022/04/21 03:59:56;;;;;;;29.90;18.77;;;11.60;99.90;;;;;;5014009;28;20045;-65
2022/04/21 04:03:00;;;;;;;76.03;19.02;;;11.60;99.90;;;;;;5023653;28;20045;-65
2022/04/21 04:10:51;;;;;;;29.85;17.13;;;11.60;99.90;;;;;;5013399;28;20053;-65
2022/04/21 04:12:50;;;;;;;25.15;17.73;;;11.70;99.90;;;;;;5013872;28;20058;-65
2022/04/21 04:15:56;;;;;;;35.58;19.15;;;11.70;99.90;;;;;;5013434;28;20392;-65
2022/04/21 04:19:03;;;;;;;29.92;18.60;;;11.70;99.90;;;;;;5012761;28;20047;-65
2022/04/21 04:22:07;;;;;;;114.72;23.40;;;11.70;99.90;;;;;;5013694;28;20049;-65
2022/04/21 04:25:11;;;;;;;60.47;18.98;;;11.60;99.90;;;;;;5012979;28;20488;-65
2022/04/21 04:28:16;;;;;;;32.95;19.20;;;11.60;99.90;;;;;;5013113;28;20091;-65
2022/04/21 04:31:20;;;;;;;40.10;19.08;;;11.60;99.90;;;;;;5013246;28;20431;-65
2022/04/21 04:34:24;;;;;;;30.08;17.05;;;11.60;99.90;;;;;;5013079;28;20049;-65
2022/04/21 04:37:28;;;;;;;88.18;20.38;;;11.60;99.90;;;;;;5011912;28;20404;-65
2022/04/21 04:40:32;;;;;;;83.00;19.77;;;11.60;99.90;;;;;;5013229;28;20049;-65
2022/04/21 04:43:36;;;;;;;69.10;19.52;;;11.60;99.90;;;;;;5012916;28;20053;-66
2022/04/21 04:46:39;;;;;;;45.80;20.58;;;11.50;99.90;;;;;;5012498;28;20057;-65
2022/04/21 04:49:43;;;;;;;85.68;21.08;;;11.30;99.90;;;;;;5012897;28;20502;-65
2022/04/21 04:52:47;;;;;;;95.00;22.67;;;11.10;99.90;;;;;;5013002;28;20499;-65
2022/04/21 04:55:51;;;;;;;61.40;23.20;;;11.00;99.90;;;;;;5013044;28;20049;-65
2022/04/21 04:58:56;;;;;;;542.80;41.90;;;10.90;99.90;;;;;;5012979;28;20492;-65
2022/04/21 05:02:01;;;;;;;626.47;46.35;;;10.90;99.90;;;;;;5013152;28;20048;-65
2022/04/21 05:05:06;;;;;;;39.92;24.17;;;10.80;99.90;;;;;;5012757;28;20049;-65
2022/04/21 05:08:10;;;;;;;62.70;23.25;;;10.90;99.90;;;;;;5013270;28;20041;-66
2022/04/21 05:11:14;;;;;;;32.25;20.23;;;10.90;99.90;;;;;;5012944;28;20048;-65
2022/04/21 05:14:18;;;;;;;40.42;22.88;;;11.00;99.90;;;;;;5014087;28;20409;-65
2022/04/21 05:17:27;;;;;;;30.85;20.33;;;11.00;99.90;;;;;;5012703;28;20053;-65
2022/04/21 05:20:31;;;;;;;36.40;20.95;;;11.00;99.90;;;;;;5013143;28;20049;-65
2022/04/21 05:23:37;;;;;;;33.50;20.55;;;11.00;99.90;;;;;;5013206;28;20045;-65
2022/04/21 05:26:43;;;;;;;30.90;20.55;;;11.10;99.90;;;;;;5015627;28;20049;-65
2022/04/21 05:33:15;;;;;;;28.98;17.80;;;11.20;99.90;;;;;;5010959;28;20025;-65
2022/04/21 05:36:20;;;;;;;30.20;18.40;;;11.30;99.90;;;;;;5012556;28;20056;-65
2022/04/21 05:39:24;;;;;;;27.25;17.52;;;11.40;99.90;;;;;;5033032;28;20396;-64
2022/04/21 05:42:33;;;;;;;25.60;17.20;;;11.40;99.90;;;;;;5025929;28;20056;-64
2022/04/21 05:45:38;;;;;;;23.33;14.82;;;11.60;99.90;;;;;;5030894;28;20049;-65
2022/04/21 05:48:42;;;;;;;26.05;17.08;;;11.60;99.90;;;;;;5032568;28;20503;-65
2022/04/21 05:51:48;;;;;;;27.77;18.50;;;11.60;99.90;;;;;;5032443;28;20048;-65
2022/04/21 05:54:53;;;;;;;27.90;17.08;;;11.50;99.90;;;;;;5031680;28;20040;-66
2022/04/21 05:57:58;;;;;;;25.50;16.08;;;11.50;99.90;;;;;;5031513;28;20435;-65
2022/04/21 06:01:08;;;;;;;24.48;17.45;;;11.50;99.90;;;;;;5027795;28;20040;-65
2022/04/21 06:04:11;;;;;;;32.40;20.67;;;11.50;99.90;;;;;;5034528;28;20064;-65
2022/04/21 06:07:15;;;;;;;33.95;21.13;;;11.40;99.90;;;;;;5035929;28;20036;-64
2022/04/21 06:10:19;;;;;;;29.65;19.92;;;11.40;99.90;;;;;;5029674;28;20052;-65
2022/04/21 06:13:27;;;;;;;31.17;20.83;;;11.30;99.90;;;;;;5038294;28;20044;-65
2022/04/21 06:16:31;;;;;;;35.35;22.58;;;11.30;99.90;;;;;;5041408;28;20076;-65
2022/04/21 06:19:35;;;;;;;34.03;21.60;;;11.10;99.90;;;;;;5034471;28;20036;-65
2022/04/21 06:22:40;;;;;;;32.88;21.02;;;11.00;99.90;;;;;;5039999;28;20057;-65
2022/04/21 06:25:45;;;;;;;37.75;24.27;;;11.10;99.90;;;;;;5015528;28;20040;-65
2022/04/21 06:28:49;;;;;;;44.47;25.17;;;11.10;99.90;;;;;;5041789;28;20408;-66
2022/04/21 06:31:53;;;;;;;47.25;27.25;;;11.00;99.90;;;;;;5039366;28;20050;-65
2022/04/21 06:34:57;;;;;;;41.65;25.77;;;10.90;99.90;;;;;;5032660;28;20053;-65
2022/04/21 06:38:03;;;;;;;43.17;26.45;;;11.00;99.90;;;;;;5026640;28;20044;-65
2022/04/21 06:41:08;;;;;;;48.78;29.90;;;11.00;99.90;;;;;;5033159;28;20048;-64
2022/04/21 06:50:58;;;;;;;42.75;27.05;;;10.80;99.90;;;;;;5027804;28;20037;-64
2022/04/21 06:54:04;;;;;;;41.78;25.48;;;10.90;99.90;;;;;;5031394;28;20041;-64
2022/04/21 06:57:09;;;;;;;37.65;24.27;;;11.00;99.90;;;;;;5024382;28;20052;-65
2022/04/21 07:00:15;;;;;;;37.90;23.25;;;11.10;99.90;;;;;;5029764;28;20048;-65
2022/04/21 07:03:19;;;;;;;34.75;23.17;;;11.10;99.90;;;;;;5033567;28;20056;-65
2022/04/21 07:06:24;;;;;;;26.38;18.50;;;11.10;99.90;;;;;;5029750;28;20064;-65
2022/04/21 07:09:31;;;;;;;32.55;20.88;;;11.20;99.90;;;;;;5039399;28;20040;-66
2022/04/21 07:12:37;;;;;;;34.20;21.08;;;11.30;99.90;;;;;;5032916;28;20049;-74
2022/04/21 07:15:42;;;;;;;35.13;21.10;;;11.40;99.90;;;;;;5032962;28;20052;-74
2022/04/21 07:18:48;;;;;;;33.13;19.73;;;11.50;99.90;;;;;;5031179;28;20053;-74
2022/04/21 07:21:52;;;;;;;25.40;17.55;;;11.60;99.90;;;;;;5051052;28;20431;-74
2022/04/21 07:25:00;;;;;;;27.25;18.50;;;11.60;99.90;;;;;;5053154;28;20044;-74
2022/04/21 07:28:04;;;;;;;26.40;18.50;;;11.40;99.90;;;;;;5037677;28;20037;-74
2022/04/21 07:31:10;;;;;;;28.15;18.58;;;11.30;99.90;;;;;;5039914;28;20040;-74
2022/04/21 07:34:14;;;;;;;24.90;17.20;;;11.40;99.90;;;;;;5022841;28;20045;-74
2022/04/21 07:37:18;;;;;;;26.67;17.60;;;11.50;99.90;;;;;;5033387;28;20048;-74
2022/04/21 07:40:23;;;;;;;24.15;16.77;;;11.80;99.90;;;;;;5029821;28;20044;-74
2022/04/21 07:43:28;;;;;;;20.17;14.88;;;12.00;99.90;;;;;;5039363;28;20055;-74
2022/04/21 07:46:32;;;;;;;18.83;14.23;;;12.30;99.90;;;;;;5039145;28;20048;-74
2022/04/21 07:49:45;;;;;;;25.95;17.10;;;12.70;99.90;;;;;;5038867;28;20036;-74
2022/04/21 07:56:14;;;;;;;14.77;10.85;;;13.50;99.90;;;;;;5036221;28;20384;-74
2022/04/21 07:59:20;;;;;;;12.48;9.95;;;13.80;99.90;;;;;;5033159;28;20052;-74
2022/04/21 08:02:24;;;;;;;14.32;10.30;;;14.30;99.90;;;;;;5036248;28;20044;-74
2022/04/21 08:05:29;;;;;;;13.73;10.27;;;14.50;99.90;;;;;;5043919;28;20060;-74
2022/04/21 08:08:33;;;;;;;19.42;13.30;;;14.10;99.90;;;;;;5045863;28;20033;-74
2022/04/21 08:11:39;;;;;;;18.88;13.20;;;13.20;99.90;;;;;;5037591;28;20040;-74
2022/04/21 08:14:44;;;;;;;15.23;10.98;;;12.90;99.90;;;;;;5032167;28;20373;-74
2022/04/21 08:17:49;;;;;;;9.75;8.15;;;13.70;99.90;;;;;;5036139;28;20048;-75
2022/04/21 08:20:58;;;;;;;11.60;8.63;;;14.50;99.90;;;;;;5033709;28;20388;-74
2022/04/21 08:32:33;;;;;;;11.68;7.88;;;15.30;99.90;;;;;;5031966;28;20045;-75
2022/04/21 08:34:30;;;;;;;8.00;4.80;;;19.20;99.90;;;;;;5027521;28;20040;-73
2022/04/21 08:37:34;;;;;;;6.18;5.10;;;20.40;99.90;;;;;;5032672;28;20045;-75
2022/04/21 08:40:50;;;;;;;7.38;5.90;;;19.20;99.90;;;;;;5036932;28;20060;-66
2022/04/21 08:43:56;;;;;;;8.27;6.65;;;16.80;99.90;;;;;;5052312;28;20047;-75
2022/04/21 08:47:05;;;;;;;9.68;7.00;;;15.30;99.90;;;;;;5032563;28;20044;-66
2022/04/21 08:50:14;;;;;;;10.40;6.50;;;15.60;99.90;;;;;;5034494;28;20038;-65
2022/04/21 08:53:20;;;;;;;10.18;7.30;;;16.10;99.90;;;;;;5038327;28;20044;-65
2022/04/21 08:56:24;;;;;;;11.00;8.27;;;15.80;99.90;;;;;;5036427;28;20048;-66
2022/04/21 08:59:28;;;;;;;12.02;8.68;;;15.50;99.90;;;;;;5039737;28;20028;-67
2022/04/21 09:02:41;;;;;;;10.48;8.55;;;15.40;99.90;;;;;;5038670;28;20040;-75
2022/04/21 09:05:45;;;;;;;10.30;8.40;;;15.00;99.90;;;;;;5017945;28;20400;-74
2022/04/21 09:09:12;;;;;;;10.05;8.05;;;15.60;99.90;;;;;;5028294;28;20047;-74
2022/04/21 09:12:20;;;;;;;12.25;8.55;;;15.20;99.90;;;;;;5031490;28;20056;-74
2022/04/21 09:15:27;;;;;;;9.90;8.70;;;15.10;99.90;;;;;;5022118;28;20060;-74
2022/04/21 09:18:43;;;;;;;11.32;8.35;;;14.90;99.90;;;;;;5026533;28;20052;-74
2022/04/21 09:21:50;;;;;;;12.23;8.35;;;15.30;99.90;;;;;;5032382;28;20853;-74
2022/04/21 09:24:54;;;;;;;8.63;6.55;;;16.10;99.90;;;;;;5035011;28;20048;-74
2022/04/21 09:27:59;;;;;;;8.05;6.80;;;17.60;99.90;;;;;;5037069;28;20043;-74
2022/04/21 09:31:06;;;;;;;7.40;6.53;;;17.50;99.90;;;;;;5035468;28;20523;-74
2022/04/21 09:34:10;;;;;;;10.63;5.97;;;18.40;99.90;;;;;;5024098;28;20036;-74
2022/04/21 09:37:20;;;;;;;5.85;4.90;;;19.10;99.90;;;;;;5033011;28;20048;-74
2022/04/21 09:40:27;;;;;;;4.82;4.30;;;21.30;99.90;;;;;;5028385;28;20047;-74
2022/04/21 09:43:37;;;;;;;6.45;4.50;;;24.10;99.90;;;;;;5025725;28;20052;-72
2022/04/21 09:46:41;;;;;;;6.47;4.32;;;25.90;99.90;;;;;;5029214;28;20044;-73
2022/04/21 09:49:46;;;;;;;5.20;4.10;;;26.80;99.90;;;;;;5027278;28;20037;-74
2022/04/21 09:52:53;;;;;;;3.55;2.92;;;26.60;99.90;;;;;;5029156;28;20395;-72
2022/04/21 09:56:08;;;;;;;3.58;3.05;;;27.90;99.90;;;;;;5035555;28;20052;-73
2022/04/21 09:59:13;;;;;;;6.28;3.28;;;27.70;96.00;;;;;;5028990;28;20044;-74
2022/04/21 10:02:18;;;;;;;4.95;3.17;;;25.30;97.80;;;;;;5023721;28;20479;-74
2022/04/21 10:05:24;;;;;;;4.75;3.22;;;26.70;99.90;;;;;;5032393;28;20048;-75
2022/04/21 10:08:29;;;;;;;4.38;2.92;;;28.30;98.70;;;;;;5041312;28;20048;-74
2022/04/21 10:11:37;;;;;;;6.32;3.20;;;28.60;97.70;;;;;;5030175;28;20045;-74
2022/04/21 10:14:42;;;;;;;7.28;3.35;;;27.40;97.30;;;;;;5033464;28;20396;-73
2022/04/21 10:17:46;;;;;;;4.20;2.97;;;26.10;98.90;;;;;;5025376;28;20493;-72
2022/04/21 10:20:54;;;;;;;4.93;2.67;;;26.90;99.90;;;;;;5032141;28;20043;-72
2022/04/21 10:23:59;;;;;;;4.85;2.88;;;29.10;97.30;;;;;;5035328;28;20032;-74
2022/04/21 10:27:03;;;;;;;6.82;3.15;;;29.40;95.90;;;;;;5036545;28;20051;-71
2022/04/21 10:30:22;;;;;;;5.07;2.90;;;31.40;94.40;;;;;;5043680;28;20040;-71
2022/04/21 10:33:52;;;;;;;3.40;2.60;;;32.40;92.30;;;;;;5037698;28;20391;-74
2022/04/21 10:37:22;;;;;;;3.50;2.70;;;26.40;93.80;;;;;;5025882;28;20048;-72
2022/04/21 10:40:28;;;;;;;3.28;2.50;;;27.60;96.30;;;;;;5034853;28;20037;-74
2022/04/21 10:43:50;;;;;;;4.82;2.30;;;29.80;94.10;;;;;;5037735;28;20048;-71
2022/04/21 10:47:33;;;;;;;2.60;1.95;;;32.20;91.30;;;;;;5034817;28;20056;-72
2022/04/21 10:50:43;;;;;;;2.13;1.58;;;33.30;91.00;;;;;;5025439;28;20048;-72
2022/04/21 10:57:20;;;;;;;3.85;2.13;;;27.90;91.10;;;;;;5038983;28;20040;-74
2022/04/21 11:00:29;;;;;;;2.22;2.03;;;27.40;93.80;;;;;;5041767;28;20052;-74
2022/04/21 11:03:36;;;;;;;4.85;1.95;;;29.70;93.50;;;;;;5029172;28;20048;-71
2022/04/21 11:06:51;;;;;;;5.05;2.30;;;31.10;90.50;;;;;;5027350;28;20132;-73
2022/04/21 11:09:56;;;;;;;5.50;2.33;;;30.90;90.60;;;;;;5031675;28;20065;-73
2022/04/21 11:13:00;;;;;;;3.95;2.88;;;27.80;92.50;;;;;;5036556;28;20387;-74
2022/04/21 11:16:04;;;;;;;5.07;2.75;;;24.00;95.30;;;;;;5032511;28;20051;-73
2022/04/21 11:19:29;;;;;;;4.07;2.83;;;23.80;97.80;;;;;;5028407;28;20041;-73
2022/04/21 11:22:41;;;;;;;4.10;3.10;;;25.10;97.60;;;;;;5037761;28;20036;-65
2022/04/21 11:25:45;;;;;;;7.43;3.70;;;23.60;98.20;;;;;;5029573;28;20052;-65
2022/04/21 11:28:48;;;;;;;5.10;3.78;;;22.60;99.90;;;;;;5032258;28;20052;-65
2022/04/21 11:31:57;;;;;;;4.57;3.17;;;21.20;99.90;;;;;;5036814;28;20043;-73
2022/04/21 11:35:05;;;;;;;5.65;3.50;;;21.50;99.90;;;;;;5039892;28;20040;-73
2022/04/21 11:38:09;;;;;;;4.72;3.53;;;21.00;99.90;;;;;;5029287;28;20044;-73
2022/04/21 11:41:15;;;;;;;6.80;3.63;;;20.90;99.90;;;;;;5043487;28;20044;-74
2022/04/21 11:44:23;;;;;;;5.18;3.67;;;20.90;99.90;;;;;;5032867;28;20522;-73
2022/04/21 11:47:28;;;;;;;4.28;3.47;;;19.40;99.90;;;;;;5034393;28;20052;-73
2022/04/21 11:50:32;;;;;;;4.70;3.53;;;20.10;99.90;;;;;;5040792;28;20499;-73
2022/04/21 11:53:40;;;;;;;4.20;3.00;;;20.30;99.90;;;;;;5041083;28;20048;-73
2022/04/21 11:56:50;;;;;;;5.75;3.20;;;21.20;99.90;;;;;;5036829;28;20045;-73
2022/04/21 12:00:04;;;;;;;10.40;3.92;;;20.50;99.90;;;;;;5048678;28;20048;-73
2022/04/21 12:06:39;;;;;;;9.68;4.55;;;19.50;99.90;;;;;;5033421;28;20044;-73
2022/04/21 12:09:46;;;;;;;5.63;3.67;;;18.80;99.90;;;;;;5028959;28;20656;-73
2022/04/21 12:12:50;;;;;;;7.72;5.53;;;18.50;99.90;;;;;;5031663;28;20048;-73
2022/04/21 12:15:54;;;;;;;14.10;8.90;;;18.60;99.90;;;;;;5035890;28;20069;-73
2022/04/21 12:19:28;;;;;;;43.97;23.42;;;18.00;99.90;;;;;;5034260;28;20064;-73
2022/04/21 12:22:32;;;;;;;11.93;6.75;;;17.30;99.90;;;;;;5032065;28;20516;-73
2022/04/21 12:25:36;;;;;;;19.98;13.27;;;17.30;99.90;;;;;;5029399;28;20048;-73
2022/04/21 12:28:47;;;;;;;15.75;9.20;;;17.20;99.90;;;;;;5030846;28;20396;-73
2022/04/21 12:31:54;;;;;;;8.65;4.53;;;16.80;99.90;;;;;;5031256;28;20044;-73
2022/04/21 12:35:15;;;;;;;7.55;4.47;;;17.00;99.90;;;;;;5029049;28;20040;-73
2022/04/21 12:41:54;;;;;;;10.65;4.88;;;16.60;99.90;;;;;;5020513;28;20044;-72
2022/04/21 12:45:02;;;;;;;8.15;3.85;;;16.60;99.90;;;;;;5028211;28;20061;-74
2022/04/21 12:48:23;;;;;;;8.15;4.72;;;16.70;99.90;;;;;;5025412;28;20048;-72
2022/04/21 12:51:33;;;;;;;6.18;4.30;;;16.70;99.90;;;;;;5029189;28;20041;-73
2022/04/21 12:54:38;;;;;;;10.00;4.40;;;16.90;99.90;;;;;;5027654;28;20033;-73
2022/04/21 12:58:01;;;;;;;7.55;5.00;;;17.10;99.90;;;;;;5030201;28;20491;-74
2022/04/21 13:01:07;;;;;;;7.47;4.18;;;17.20;99.90;;;;;;5031385;28;20527;-74
2022/04/21 13:04:14;;;;;;;9.50;4.55;;;17.30;99.90;;;;;;5023774;28;20044;-72
2022/04/21 13:07:21;;;;;;;9.82;4.25;;;17.50;99.90;;;;;;5028666;28;20056;-74
2022/04/21 13:10:31;;;;;;;9.15;3.17;;;17.30;99.90;;;;;;5027944;28;20046;-74
2022/04/21 13:13:36;;;;;;;6.68;2.53;;;17.30;99.90;;;;;;5026796;28;20049;-73
2022/04/21 13:16:40;;;;;;;4.32;2.80;;;17.20;99.90;;;;;;5027472;28;20067;-74
2022/04/21 13:19:45;;;;;;;8.05;2.13;;;17.20;99.90;;;;;;5022760;28;20396;-72
2022/04/21 13:22:55;;;;;;;4.30;2.25;;;17.20;99.90;;;;;;5029871;28;20503;-65
2022/04/21 13:26:09;;;;;;;6.07;2.30;;;16.90;99.90;;;;;;5029377;28;20044;-65
2022/04/21 13:29:22;;;;;;;5.82;2.30;;;16.70;99.90;;;;;;5024582;28;20035;-65
2022/04/21 13:35:56;;;;;;;;;;;16.40;99.90;;;;;;5029432;28;20367;-66
2022/04/21 13:39:07;;;;;;;4.60;1.75;;;16.10;99.90;;;;;;5027133;28;19924;-65
2022/04/21 13:42:11;;;;;;;3.70;2.30;;;15.80;99.90;;;;;;5025470;28;20036;-66
2022/04/21 13:45:15;;;;;;;4.13;2.90;;;15.70;99.90;;;;;;5031766;28;20823;-65
2022/04/21 13:48:20;;;;;;;7.78;3.88;;;15.80;99.90;;;;;;5026621;28;20052;-65
2022/04/21 13:51:24;;;;;;;20.10;9.07;;;16.00;99.90;;;;;;5029098;28;20036;-65
2022/04/21 13:54:29;;;;;;;23.75;8.98;;;16.30;99.90;;;;;;5025232;28;20036;-66
2022/04/21 13:57:36;;;;;;;16.60;8.77;;;16.30;99.90;;;;;;5027346;28;20389;-66
2022/04/21 14:00:46;;;;;;;11.77;5.97;;;16.50;99.90;;;;;;5026574;28;20388;-65
2022/04/21 14:03:51;;;;;;;12.15;6.03;;;16.60;99.90;;;;;;5026399;28;20044;-66
2022/04/21 14:06:55;;;;;;;12.15;5.95;;;16.60;99.90;;;;;;5029379;28;20381;-63
2022/04/21 14:09:59;;;;;;;10.80;5.38;;;16.80;99.90;;;;;;5029114;28;20518;-66
2022/04/21 14:13:05;;;;;;;16.42;7.57;;;16.90;99.90;;;;;;5028901;28;20044;-65
2022/04/21 14:16:10;;;;;;;17.35;7.03;;;17.10;99.90;;;;;;5013842;28;20048;-66
2022/04/21 14:19:14;;;;;;;11.88;6.63;;;17.20;99.90;;;;;;5028907;28;20068;-65
2022/04/21 14:22:19;;;;;;;6.72;3.70;;;17.30;99.90;;;;;;5025481;28;20037;-65
2022/04/21 14:25:23;;;;;;;9.27;4.13;;;17.30;99.90;;;;;;5027392;28;20056;-65
2022/04/21 14:28:26;;;;;;;6.47;3.78;;;17.20;99.90;;;;;;5026642;28;20056;-65
2022/04/21 14:31:31;;;;;;;6.70;3.55;;;17.10;99.90;;;;;;5026021;28;20033;-66
2022/04/21 14:34:37;;;;;;;11.70;3.53;;;17.00;99.90;;;;;;5027436;28;20048;-66
2022/04/21 14:44:27;;;;;;;5.78;3.08;;;16.80;99.90;;;;;;5030360;28;20424;-65
2022/04/21 14:47:32;;;;;;;16.90;6.88;;;16.90;99.90;;;;;;5011850;28;20045;-65
2022/04/21 14:50:38;;;;;;;13.57;6.13;;;16.80;99.90;;;;;;5023711;28;20232;-65
2022/04/21 14:53:46;;;;;;;6.97;4.05;;;16.90;99.90;;;;;;5030192;28;20039;-65
2022/04/21 14:56:50;;;;;;;6.13;3.47;;;17.00;99.90;;;;;;5030438;28;20111;-65
2022/04/21 14:59:54;;;;;;;4.38;3.25;;;16.20;99.90;;;;;;5031473;28;20060;-65
2022/04/21 15:02:58;;;;;;;11.77;3.20;;;16.30;99.90;;;;;;5033099;28;20052;-65
2022/04/21 15:06:02;;;;;;;7.22;3.42;;;16.30;99.90;;;;;;5032874;28;20049;-65
2022/04/21 15:09:05;;;;;;;7.43;3.72;;;16.10;99.90;;;;;;5032484;28;20044;-65
2022/04/21 15:12:10;;;;;;;4.88;3.17;;;16.00;99.90;;;;;;5029118;28;20049;-65
2022/04/21 15:15:15;;;;;;;5.95;3.40;;;16.00;99.90;;;;;;5033103;28;20056;-65
2022/04/21 15:18:20;;;;;;;4.88;2.67;;;16.00;99.90;;;;;;5030638;28;20052;-65
2022/04/21 15:21:24;;;;;;;4.90;3.05;;;16.00;99.90;;;;;;5032572;28;20510;-65
2022/04/21 15:24:30;;;;;;;5.97;3.15;;;16.30;99.90;;;;;;5032362;28;20068;-66
2022/04/21 15:27:34;;;;;;;7.40;3.08;;;16.50;99.90;;;;;;5033207;28;20052;-65
2022/04/21 15:30:40;;;;;;;6.30;3.10;;;16.80;99.90;;;;;;5033200;28;20048;-65
2022/04/21 15:33:44;;;;;;;5.28;2.85;;;16.80;99.90;;;;;;5029002;28;20388;-65
2022/04/21 15:36:49;;;;;;;14.85;2.90;;;16.30;99.90;;;;;;5018963;28;20384;-65
2022/04/21 15:39:53;;;;;;;5.68;2.45;;;15.80;99.90;;;;;;5033994;28;20072;-65
2022/04/21 15:42:58;;;;;;;7.25;3.05;;;15.60;99.90;;;;;;5033765;28;20040;-64
2022/04/21 15:46:02;;;;;;;8.60;3.13;;;15.70;99.90;;;;;;5033083;28;20052;-64
2022/04/21 15:49:06;;;;;;;7.97;3.25;;;15.50;99.90;;;;;;5013306;28;20049;-65
2022/04/21 15:52:12;;;;;;;6.47;3.20;;;15.40;99.90;;;;;;5018047;28;20032;-65
2022/04/21 15:58:55;;;;;;;6.65;2.97;;;15.30;99.90;;;;;;5032714;28;20045;-65
2022/04/21 16:01:59;;;;;;;10.60;4.78;;;15.20;99.90;;;;;;5032604;28;20052;-65
2022/04/21 16:05:03;;;;;;;7.78;3.75;;;14.60;99.90;;;;;;5031965;28;20515;-65
2022/04/21 16:08:08;;;;;;;6.28;3.25;;;14.30;99.90;;;;;;5032036;28;20052;-65
2022/04/21 16:11:12;;;;;;;5.28;3.30;;;14.50;99.90;;;;;;5032490;28;20040;-65
2022/04/21 16:14:16;;;;;;;7.75;4.60;;;14.50;99.90;;;;;;5020266;28;20504;-65
2022/04/21 16:17:21;;;;;;;12.00;4.90;;;14.40;99.90;;;;;;5031418;28;20381;-65
2022/04/21 16:20:26;;;;;;;11.25;6.80;;;14.10;99.90;;;;;;5031387;28;20503;-65
2022/04/21 16:23:30;;;;;;;11.95;7.30;;;14.10;99.90;;;;;;5031987;28;20044;-64
2022/04/21 16:26:34;;;;;;;11.32;7.15;;;14.10;99.90;;;;;;5031839;28;20385;-65
2022/04/21 16:29:38;;;;;;;15.65;7.47;;;14.10;99.90;;;;;;5030696;28;20068;-66
2022/04/21 16:32:42;;;;;;;9.60;6.65;;;14.20;99.90;;;;;;5030747;28;20044;-66
2022/04/21 16:35:47;;;;;;;10.95;6.45;;;14.30;99.90;;;;;;5032378;28;20052;-65
2022/04/21 16:38:52;;;;;;;8.52;5.22;;;14.30;99.90;;;;;;5032338;28;20053;-65
2022/04/21 16:41:57;;;;;;;11.52;5.53;;;14.30;99.90;;;;;;5032499;28;20527;-65
2022/04/21 16:45:01;;;;;;;11.35;5.38;;;14.20;99.90;;;;;;5012550;28;20407;-65
2022/04/21 16:48:05;;;;;;;10.43;5.45;;;14.30;99.90;;;;;;5020692;28;20044;-66
2022/04/21 16:51:09;;;;;;;9.75;5.60;;;14.20;99.90;;;;;;5032457;28;20389;-65
2022/04/21 16:54:13;;;;;;;8.23;4.82;;;14.20;99.90;;;;;;5032128;28;20049;-65
2022/04/21 16:57:17;;;;;;;12.93;7.07;;;14.10;99.90;;;;;;5031252;28;20394;-65
2022/04/21 17:03:44;;;;;;;6.45;3.58;;;13.70;99.90;;;;;;5031195;28;20052;-65